Time,TemperatureF,DewpointF,PressureIn,WindDirection,WindDirectionDegrees,WindSpeedMPH,WindSpeedGustMPH,Humidity,HourlyPrecipIn,Conditions,Clouds,dailyrainin,SoftwareType,DateUTC
2013-07-18 00:02:00,72.0,71.0,30.13,NNE,31,0.0,0.0,98,0.00,,,0.05,,2013-07-18 04:02:00,
2013-07-18 00:12:00,72.0,71.0,30.13,NNE,31,0.0,0.0,98,0.00,,,0.05,,2013-07-18 04:12:00,
2013-07-18 00:22:00,71.0,70.0,30.12,North,5,0.0,1.0,98,0.00,,,0.05,,2013-07-18 04:22:00,
2013-07-18 00:43:00,72.0,71.0,30.12,NNE,15,0.0,0.0,98,0.00,,,0.05,,2013-07-18 04:43:00,
2013-07-18 00:52:00,72.0,71.0,30.12,NNE,15,0.0,0.0,98,0.00,,,0.05,,2013-07-18 04:52:00,
2013-07-18 01:22:00,72.0,72.0,30.11,NNE,20,0.0,0.0,99,0.00,,,0.05,,2013-07-18 05:22:00,
2013-07-18 01:32:00,71.0,70.0,30.11,NNE,20,0.0,0.0,98,0.00,,,0.05,,2013-07-18 05:32:00,
2013-07-18 01:52:00,70.0,70.0,30.11,NNE,20,0.0,0.0,99,0.00,,,0.05,,2013-07-18 05:52:00,
2013-07-18 02:22:00,70.0,70.0,30.11,NNE,20,0.0,0.0,99,0.00,,,0.05,,2013-07-18 06:22:00,
2013-07-18 02:32:00,70.0,70.0,30.11,NNE,20,0.0,0.0,99,0.00,,,0.05,,2013-07-18 06:32:00,
2013-07-18 02:43:00,70.0,70.0,30.11,NNE,20,0.0,0.0,99,0.00,,,0.05,,2013-07-18 06:43:00,
2013-07-18 02:52:00,70.0,70.0,30.11,NNE,20,0.0,0.0,99,0.00,,,0.05,,2013-07-18 06:52:00,
2013-07-18 03:01:00,70.0,70.0,30.10,NNE,20,0.0,0.0,99,0.00,,,0.05,,2013-07-18 07:01:00,
2013-07-18 03:12:00,70.0,70.0,30.11,NNE,20,0.0,0.0,99,0.00,,,0.05,,2013-07-18 07:12:00,
2013-07-18 03:22:00,70.0,70.0,30.11,NNE,20,0.0,0.0,99,0.00,,,0.05,,2013-07-18 07:22:00,
2013-07-18 03:32:00,71.0,71.0,30.11,NNE,20,0.0,0.0,99,0.00,,,0.05,,2013-07-18 07:32:00,
2013-07-18 03:42:00,70.0,70.0,30.11,NNE,20,0.0,0.0,99,0.00,,,0.05,,2013-07-18 07:42:00,
2013-07-18 03:52:00,70.0,70.0,30.11,NNE,20,0.0,0.0,99,0.00,,,0.05,,2013-07-18 07:52:00,
2013-07-18 04:01:00,70.0,70.0,30.10,NNE,20,0.0,0.0,99,0.00,,,0.05,,2013-07-18 08:01:00,
2013-07-18 04:11:00,70.0,70.0,30.09,NNE,20,0.0,0.0,99,0.00,,,0.05,,2013-07-18 08:11:00,
2013-07-18 04:21:00,70.0,70.0,30.09,NNE,20,0.0,0.0,99,0.00,,,0.05,,2013-07-18 08:21:00,
2013-07-18 04:32:00,70.0,70.0,30.09,NNE,20,0.0,0.0,99,0.00,,,0.05,,2013-07-18 08:32:00,
2013-07-18 04:51:00,70.0,70.0,30.09,NNE,20,0.0,0.0,99,0.00,,,0.05,,2013-07-18 08:51:00,
2013-07-18 05:01:00,69.0,69.0,30.09,NNE,20,0.0,0.0,99,0.00,,,0.05,,2013-07-18 09:01:00,
2013-07-18 05:21:00,70.0,70.0,30.09,NNE,20,0.0,0.0,99,0.00,,,0.05,,2013-07-18 09:21:00,
2013-07-18 05:32:00,70.0,70.0,30.09,NNE,20,0.0,0.0,99,0.00,,,0.05,,2013-07-18 09:32:00,
2013-07-18 05:42:00,70.0,70.0,30.09,NNE,20,0.0,0.0,99,0.00,,,0.05,,2013-07-18 09:42:00,
2013-07-18 05:51:00,70.0,70.0,30.09,NNE,20,0.0,0.0,99,0.00,,,0.05,,2013-07-18 09:51:00,
2013-07-18 06:01:00,70.0,70.0,30.09,NNE,20,0.0,0.0,99,0.00,,,0.05,,2013-07-18 10:01:00,
2013-07-18 06:11:00,70.0,70.0,30.09,NNE,20,0.0,0.0,99,0.00,,,0.05,,2013-07-18 10:11:00,
2013-07-18 06:22:00,70.0,70.0,30.10,NNE,20,0.0,0.0,99,0.00,,,0.05,,2013-07-18 10:22:00,
2013-07-18 06:32:00,70.0,70.0,30.10,NNE,20,0.0,0.0,99,0.00,,,0.05,,2013-07-18 10:32:00,
2013-07-18 06:43:00,71.0,71.0,30.10,NNE,20,0.0,0.0,99,0.00,,,0.05,,2013-07-18 10:43:00,
2013-07-18 06:52:00,71.0,71.0,30.10,NNE,20,0.0,0.0,99,0.00,,,0.05,,2013-07-18 10:52:00,
2013-07-18 07:11:00,71.0,71.0,30.11,NNE,20,0.0,0.0,99,0.00,,,0.05,,2013-07-18 11:11:00,
2013-07-18 07:22:00,71.0,71.0,30.11,NNE,20,0.0,0.0,99,0.00,,,0.05,,2013-07-18 11:22:00,
2013-07-18 07:32:00,71.0,71.0,30.11,NNE,20,0.0,0.0,99,0.00,,,0.05,,2013-07-18 11:32:00,
2013-07-18 07:43:00,71.0,71.0,30.11,NNE,20,0.0,0.0,99,0.00,,,0.05,,2013-07-18 11:43:00,
2013-07-18 08:02:00,73.0,73.0,30.11,NNE,20,0.0,0.0,99,0.00,,,0.05,,2013-07-18 12:02:00,
2013-07-18 08:11:00,73.0,73.0,30.11,NNE,20,0.0,0.0,99,0.00,,,0.05,,2013-07-18 12:11:00,
2013-07-18 08:22:00,73.0,73.0,30.11,NNE,20,0.0,0.0,99,0.00,,,0.05,,2013-07-18 12:22:00,
2013-07-18 08:42:00,76.0,76.0,30.12,NNE,20,0.0,0.0,99,0.00,,,0.05,,2013-07-18 12:42:00,
2013-07-18 08:52:00,76.0,76.0,30.12,NNE,20,0.0,0.0,99,0.00,,,0.05,,2013-07-18 12:52:00,
2013-07-18 09:22:00,76.0,76.0,30.13,NNE,15,0.0,0.0,100,0.00,,,0.05,,2013-07-18 13:22:00,
2013-07-18 10:43:00,78.0,77.0,30.13,WSW,246,0.0,3.0,97,0.00,,,0.05,,2013-07-18 14:43:00,
2013-07-18 10:53:00,78.0,77.0,30.13,WSW,246,0.0,3.0,97,0.00,,,0.05,,2013-07-18 14:53:00,
2013-07-18 11:11:00,80.0,78.0,30.13,South,189,0.0,2.0,94,0.00,,,0.05,,2013-07-18 15:11:00,
2013-07-18 11:22:00,80.0,78.0,30.13,South,178,0.0,6.0,93,0.01,,,0.06,,2013-07-18 15:22:00,
2013-07-18 11:32:00,81.0,78.0,30.13,South,181,0.0,2.0,90,0.01,,,0.06,,2013-07-18 15:32:00,
2013-07-18 11:43:00,82.0,78.0,30.13,South,182,0.0,4.0,89,0.01,,,0.06,,2013-07-18 15:43:00,
2013-07-18 12:01:00,81.0,77.0,30.13,South,183,0.0,5.0,89,0.01,,,0.06,,2013-07-18 16:01:00,
2013-07-18 12:11:00,81.0,77.0,30.13,South,183,0.0,5.0,89,0.01,,,0.06,,2013-07-18 16:11:00,
2013-07-18 12:22:00,81.0,77.0,30.13,South,184,0.0,5.0,88,0.00,,,0.06,,2013-07-18 16:22:00,
2013-07-18 12:32:00,81.0,77.0,30.12,South,182,0.0,2.0,88,0.00,,,0.06,,2013-07-18 16:32:00,
2013-07-18 12:42:00,81.0,77.0,30.12,South,182,0.0,2.0,88,0.00,,,0.06,,2013-07-18 16:42:00,
2013-07-18 12:52:00,81.0,77.0,30.12,North,5,0.0,0.0,88,0.00,,,0.06,,2013-07-18 16:52:00,
2013-07-18 13:02:00,80.0,77.0,30.12,SSE,163,0.0,2.0,91,0.00,,,0.06,,2013-07-18 17:02:00,
2013-07-18 13:11:00,80.0,77.0,30.12,SSE,163,0.0,2.0,91,0.00,,,0.06,,2013-07-18 17:11:00,
2013-07-18 13:22:00,82.0,78.0,30.12,SSE,164,0.0,3.0,88,0.00,,,0.06,,2013-07-18 17:22:00,
2013-07-18 13:43:00,83.0,78.0,30.11,SE,126,0.0,6.0,84,0.00,,,0.06,,2013-07-18 17:43:00,
2013-07-18 14:11:00,84.0,78.0,30.11,South,173,0.0,5.0,83,0.00,,,0.06,,2013-07-18 18:11:00,
2013-07-18 14:22:00,84.0,78.0,30.11,South,173,0.0,5.0,83,0.00,,,0.06,,2013-07-18 18:22:00,
2013-07-18 14:52:00,84.0,78.0,30.09,SSE,166,0.0,3.0,82,0.00,,,0.05,,2013-07-18 18:52:00,
2013-07-18 15:11:00,85.0,79.0,30.09,SW,225,0.0,1.0,83,0.00,,,0.05,,2013-07-18 19:11:00,
2013-07-18 15:32:00,85.0,77.0,30.08,SE,128,0.0,5.0,76,0.00,,,0.05,,2013-07-18 19:32:00,
2013-07-18 15:43:00,88.0,74.0,30.08,South,169,0.0,0.0,64,0.00,,,0.05,,2013-07-18 19:43:00,
2013-07-18 15:53:00,85.0,79.0,30.07,NE,34,0.0,2.0,82,0.00,,,0.05,,2013-07-18 19:53:00,
2013-07-18 16:02:00,85.0,79.0,30.07,NE,34,0.0,2.0,82,0.00,,,0.05,,2013-07-18 20:02:00,
2013-07-18 16:11:00,86.0,78.0,30.06,NNE,26,0.0,1.0,77,0.00,,,0.05,,2013-07-18 20:11:00,
2013-07-18 16:22:00,86.0,78.0,30.06,NNE,26,0.0,1.0,77,0.00,,,0.05,,2013-07-18 20:22:00,
2013-07-18 16:43:00,81.0,76.0,30.06,SSE,166,0.0,0.0,85,0.00,,,0.05,,2013-07-18 20:43:00,
2013-07-18 16:52:00,80.0,75.0,30.06,South,169,0.0,3.0,86,0.00,,,0.05,,2013-07-18 20:52:00,
2013-07-18 17:01:00,79.0,74.0,30.06,SSE,149,1.0,7.0,86,0.00,,,0.05,,2013-07-18 21:01:00,
2013-07-18 17:11:00,79.0,74.0,30.06,SSE,149,1.0,7.0,86,0.00,,,0.05,,2013-07-18 21:11:00,
2013-07-18 17:22:00,77.0,73.0,30.06,SSW,198,0.0,6.0,88,0.00,,,0.05,,2013-07-18 21:22:00,
2013-07-18 17:32:00,75.0,72.0,30.07,South,169,0.0,3.0,91,0.00,,,0.05,,2013-07-18 21:32:00,
2013-07-18 17:43:00,75.0,72.0,30.07,South,169,0.0,3.0,91,0.00,,,0.05,,2013-07-18 21:43:00,
2013-07-18 17:52:00,75.0,73.0,30.06,South,169,0.0,0.0,94,0.00,,,0.05,,2013-07-18 21:52:00,
2013-07-18 18:01:00,75.0,74.0,30.07,SSW,205,0.0,5.0,96,0.01,,,0.06,,2013-07-18 22:01:00,
2013-07-18 18:11:00,75.0,74.0,30.07,SSW,205,0.0,5.0,96,0.01,,,0.06,,2013-07-18 22:11:00,
2013-07-18 18:32:00,75.0,74.0,30.08,SSE,165,0.0,4.0,97,0.02,,,0.07,,2013-07-18 22:32:00,
2013-07-18 18:43:00,75.0,74.0,30.08,SSE,165,0.0,2.0,97,0.04,,,0.09,,2013-07-18 22:43:00,
2013-07-18 18:53:00,75.0,74.0,30.08,SSE,165,0.0,0.0,98,0.04,,,0.09,,2013-07-18 22:53:00,
2013-07-18 19:02:00,75.0,74.0,30.08,SSE,165,0.0,0.0,98,0.04,,,0.09,,2013-07-18 23:02:00,
2013-07-18 19:11:00,76.0,75.0,30.08,SSE,165,0.0,0.0,98,0.03,,,0.09,,2013-07-18 23:11:00,
2013-07-18 19:22:00,76.0,75.0,30.08,SSE,165,0.0,0.0,98,0.03,,,0.09,,2013-07-18 23:22:00,
2013-07-18 19:32:00,76.0,75.0,30.08,SSE,165,0.0,0.0,98,0.02,,,0.09,,2013-07-18 23:32:00,
2013-07-18 19:42:00,76.0,75.0,30.08,SSE,165,0.0,0.0,98,0.00,,,0.09,,2013-07-18 23:42:00,
2013-07-18 19:52:00,75.0,74.0,30.08,SSE,165,0.0,0.0,98,0.00,,,0.09,,2013-07-18 23:52:00,
2013-07-18 20:01:00,75.0,74.0,30.08,SSE,165,0.0,0.0,98,0.00,,,0.09,,2013-07-19 00:01:00,
2013-07-18 20:11:00,75.0,74.0,30.08,SSE,165,0.0,0.0,98,0.00,,,0.09,,2013-07-19 00:11:00,
2013-07-18 20:22:00,75.0,74.0,30.08,SSE,155,0.0,0.0,98,0.00,,,0.09,,2013-07-19 00:22:00,
2013-07-18 20:32:00,75.0,74.0,30.08,SSE,152,0.0,0.0,98,0.00,,,0.09,,2013-07-19 00:32:00,
2013-07-18 20:43:00,75.0,74.0,30.08,SSE,152,0.0,0.0,98,0.00,,,0.09,,2013-07-19 00:43:00,
2013-07-18 20:52:00,74.0,73.0,30.09,ESE,121,0.0,0.0,98,0.00,,,0.09,,2013-07-19 00:52:00,
2013-07-18 21:01:00,74.0,73.0,30.09,ESE,121,0.0,0.0,98,0.00,,,0.09,,2013-07-19 01:01:00,
2013-07-18 21:11:00,74.0,73.0,30.09,ESE,121,0.0,0.0,98,0.00,,,0.09,,2013-07-19 01:11:00,
2013-07-18 21:22:00,73.0,72.0,30.09,ESE,121,0.0,0.0,98,0.00,,,0.09,,2013-07-19 01:22:00,
2013-07-18 21:42:00,73.0,73.0,30.09,ESE,121,0.0,0.0,99,0.00,,,0.09,,2013-07-19 01:42:00,
2013-07-18 21:52:00,73.0,73.0,30.10,ESE,121,0.0,0.0,99,0.00,,,0.09,,2013-07-19 01:52:00,
2013-07-18 22:02:00,73.0,73.0,30.10,ESE,121,0.0,0.0,99,0.00,,,0.09,,2013-07-19 02:02:00,
2013-07-18 22:11:00,73.0,73.0,30.10,ESE,121,0.0,0.0,99,0.00,,,0.09,,2013-07-19 02:11:00,
2013-07-18 22:22:00,72.0,72.0,30.10,ESE,121,0.0,0.0,99,0.00,,,0.07,,2013-07-19 02:22:00,
2013-07-18 22:42:00,72.0,72.0,30.10,ESE,121,0.0,0.0,99,0.00,,,0.07,,2013-07-19 02:42:00,
2013-07-18 22:52:00,72.0,72.0,30.10,ESE,121,0.0,0.0,99,0.00,,,0.07,,2013-07-19 02:52:00,
2013-07-18 23:11:00,72.0,72.0,30.10,ESE,121,0.0,0.0,99,0.00,,,0.07,,2013-07-19 03:11:00,
2013-07-18 23:22:00,71.0,71.0,30.10,ESE,121,0.0,0.0,99,0.00,,,0.05,,2013-07-19 03:22:00,
2013-07-18 23:43:00,71.0,71.0,30.11,ESE,121,0.0,0.0,99,0.00,,,0.05,,2013-07-19 03:43:00,
2013-07-18 23:52:00,71.0,71.0,30.11,ESE,121,0.0,0.0,99,0.00,,,0.05,,2013-07-19 03:52:00,